»·PEaware :: N630AJ KPRC-KIFP

N630AJ :: KPRC-KIFP

FLIGHT INFORMATION

Flight Status: Arrived
Operator: Privately registered:
United States
More flights under this callsign
Pilot: David J. (16724)
Aircraft: Unknown
(PIPA)
More flights by this aircraft type
Origin: KPRC Love
United States
Destination: KIFP Laughlin/Bullhead Intl
United States
More flights between these airports :: More routes between these airports
Route: +DRK V12 EED
File this flight plan on PilotEdge
Remarks:
Altitude:
(Current/Filed)
10,000ft
Speed:
(Current/Filed)
190kts
Departed: 29-Jun-18 01:56 PM
Arrived: 29-Jun-18 02:37 PM
Distance/Time
Traveled:
109nm/0:41
Distance/Time
To Go:
Arrived

Flight Plot

Page will automatically refresh every two minutes.

Flight plan parsing failed; only flown route is shown


Map Options




Map Legend


Flown Route
Filed Route
Departure Airport
Arrival Airport
Navaid (VOR, NDB)
Fix

Horizontal Profiles

Position Reports

Time Latitude Longitude Heading Altitude Ground
Speed
29-Jun-18 13:38 34.653852 -112.422581 130 5044ft 0kts
29-Jun-18 13:39 34.653852 -112.422581 130 5044ft 0kts
29-Jun-18 13:40 34.653852 -112.422581 130 5044ft 0kts
29-Jun-18 13:41 34.653852 -112.422581 130 5044ft 0kts
29-Jun-18 13:42 34.653852 -112.422581 130 5044ft 0kts
29-Jun-18 13:43 34.653852 -112.422581 130 5044ft 0kts
29-Jun-18 13:44 34.653852 -112.422581 130 5044ft 0kts
29-Jun-18 13:45 34.653852 -112.422581 130 5044ft 0kts
29-Jun-18 13:46 34.653852 -112.422581 130 5044ft 0kts
29-Jun-18 13:47 34.653852 -112.422581 130 5044ft 0kts
29-Jun-18 13:48 34.653852 -112.422581 130 5044ft 0kts
29-Jun-18 13:49 34.653852 -112.422581 130 5044ft 0kts
29-Jun-18 13:50 34.653852 -112.422581 130 5044ft 0kts
29-Jun-18 13:51 34.653833 -112.422556 134 5044ft 0kts
29-Jun-18 13:52 34.655176 -112.420535 115 5044ft 9kts
29-Jun-18 13:53 34.657987 -112.417198 41 5044ft 17kts
29-Jun-18 13:54 34.661767 -112.413163 64 5044ft 8kts
29-Jun-18 13:55 34.661281 -112.412388 170 5044ft 8kts
29-Jun-18 13:56 34.648830 -112.425365 214 5432ft 99kts
29-Jun-18 13:57 34.626814 -112.445144 216 6731ft 102kts
29-Jun-18 13:58 34.617385 -112.470954 329 7870ft 142kts
29-Jun-18 13:59 34.659461 -112.474862 352 8807ft 166kts
29-Jun-18 14:00 34.700048 -112.491610 275 9361ft 159kts
29-Jun-18 14:01 34.703527 -112.545798 268 9876ft 163kts
29-Jun-18 14:02 34.706500 -112.603772 268 10002ft 182kts
29-Jun-18 14:03 34.709341 -112.665943 268 10001ft 187kts
29-Jun-18 14:04 34.711999 -112.729195 268 10001ft 188kts
29-Jun-18 14:05 34.714532 -112.792739 267 10001ft 188kts
29-Jun-18 14:06 34.716972 -112.856574 268 10000ft 189kts
29-Jun-18 14:07 34.719362 -112.920025 267 9982ft 188kts
29-Jun-18 14:08 34.721662 -112.983181 267 10019ft 186kts
29-Jun-18 14:09 34.723915 -113.046149 267 10018ft 187kts
29-Jun-18 14:10 34.726118 -113.108842 267 9987ft 188kts
29-Jun-18 14:11 34.728306 -113.172269 267 9953ft 188kts
29-Jun-18 14:12 34.730463 -113.235387 267 9919ft 188kts
29-Jun-18 14:13 34.732582 -113.298894 267 9891ft 187kts
29-Jun-18 14:14 34.734612 -113.360078 267 9890ft 186kts
29-Jun-18 14:15 34.736651 -113.423041 267 9890ft 186kts
29-Jun-18 14:16 34.738661 -113.485895 267 9890ft 186kts
29-Jun-18 14:17 34.740555 -113.546006 267 10174ft 178kts
29-Jun-18 14:18 34.742588 -113.607183 267 10173ft 183kts
29-Jun-18 14:19 34.744382 -113.668766 266 10175ft 185kts
29-Jun-18 14:20 34.746213 -113.731038 266 10175ft 185kts
29-Jun-18 14:21 34.748050 -113.793800 266 10161ft 186kts
29-Jun-18 14:22 34.749871 -113.857117 266 10126ft 188kts
29-Jun-18 14:23 34.751677 -113.920907 266 10091ft 189kts
29-Jun-18 14:24 34.778532 -113.975962 300 9832ft 206kts
29-Jun-18 14:25 34.812516 -114.033003 300 9346ft 211kts
29-Jun-18 14:26 34.847117 -114.091053 301 8856ft 212kts
29-Jun-18 14:27 34.881906 -114.149686 300 8176ft 219kts
29-Jun-18 14:28 34.917266 -114.210221 301 7486ft 218kts
29-Jun-18 14:29 34.951384 -114.269275 301 7003ft 208kts
29-Jun-18 14:30 34.983450 -114.324149 301 7001ft 192kts
29-Jun-18 14:31 35.013947 -114.376170 301 7001ft 185kts
29-Jun-18 14:32 35.044679 -114.427840 303 5904ft 187kts
29-Jun-18 14:33 35.076994 -114.478157 310 4585ft 189kts
29-Jun-18 14:34 35.117432 -114.514703 322 2802ft 173kts
29-Jun-18 14:35 35.153445 -114.537300 289 1464ft 107kts
29-Jun-18 14:36 35.145601 -114.558699 342 751ft 81kts
29-Jun-18 14:37 35.155920 -114.558347 82 704ft 0kts
29-Jun-18 14:38 35.155975 -114.556626 68 704ft 10kts
29-Jun-18 14:39 35.157837 -114.556164 261 704ft 5kts

Navigation Log

Ident Type
Flight plan parsing failed, navigation log unavailable